Time;durP1;ratioP1;P1;durP2;ratioP2;P2;SDS_P1;SDS_P2;PMS_P1;PMS_P2;Temp;Humidity;BMP_temperature;BMP_pressure;BME280_temperature;BME280_humidity;BME280_pressure;Samples;Min_cycle;Max_cycle;Signal;HPM_P1;HPM_P2
2022/01/05 00:06:38;;;;;;;0.20;0.00;;;13.50;99.90;;;;;;20425470;29;20205;-70
2022/01/05 00:16:44;;;;;;;0.23;0.17;;;13.80;99.90;;;;;;20414036;29;20236;-70
2022/01/05 00:26:48;;;;;;;0.20;0.00;;;13.80;99.90;;;;;;20415036;29;20603;-70
2022/01/05 00:36:53;;;;;;;0.20;0.00;;;13.60;99.90;;;;;;20435842;29;20657;-68
2022/01/05 00:46:56;;;;;;;0.20;0.00;;;13.50;99.90;;;;;;20452672;29;20221;-69
2022/01/05 00:57:02;;;;;;;0.20;0.10;;;13.60;99.90;;;;;;20465625;29;20224;-69
2022/01/05 01:07:06;;;;;;;0.20;0.00;;;13.70;99.90;;;;;;20471333;29;20195;-69
2022/01/05 01:17:11;;;;;;;0.20;0.00;;;13.60;99.90;;;;;;20494099;28;20686;-69
2022/01/05 01:27:15;;;;;;;0.53;0.53;;;13.60;99.90;;;;;;20507733;29;20197;-69
2022/01/05 01:37:21;;;;;;;0.20;0.10;;;13.50;99.90;;;;;;20505993;29;20319;-70
2022/01/05 01:47:25;;;;;;;0.20;0.00;;;13.30;99.90;;;;;;20505480;28;20200;-68
2022/01/05 01:57:32;;;;;;;0.20;0.10;;;13.10;99.90;;;;;;20502953;29;20228;-68
2022/01/05 02:07:36;;;;;;;0.20;0.10;;;12.80;99.90;;;;;;20503702;29;20233;-67
2022/01/05 02:17:54;;;;;;;0.20;0.00;;;12.80;99.90;;;;;;20503863;29;20280;-67
2022/01/05 02:27:59;;;;;;;0.20;0.10;;;13.00;99.90;;;;;;20503083;28;20284;-68
2022/01/05 02:38:03;;;;;;;0.20;0.10;;;13.10;99.90;;;;;;20501452;29;20331;-68
2022/01/05 02:48:08;;;;;;;7.10;2.10;;;13.10;99.90;;;;;;20501375;29;20209;-68
2022/01/05 02:58:12;;;;;;;0.20;0.00;;;13.00;99.90;;;;;;20499553;29;20291;-68
2022/01/05 03:08:20;;;;;;;0.20;0.00;;;12.70;99.90;;;;;;20584059;23;20254;-70
2022/01/05 03:18:24;;;;;;;0.20;0.10;;;12.50;99.90;;;;;;20562891;28;20645;-69
2022/01/05 03:28:31;;;;;;;0.20;0.10;;;12.60;99.90;;;;;;20579689;28;20200;-68
2022/01/05 03:38:34;;;;;;;0.20;0.10;;;12.30;99.90;;;;;;20577775;28;20591;-69
2022/01/05 03:48:39;;;;;;;0.20;0.00;;;12.20;99.90;;;;;;20577218;28;20239;-68
2022/01/05 03:58:44;;;;;;;0.20;0.10;;;12.00;99.90;;;;;;20576766;28;20243;-69
2022/01/05 04:08:49;;;;;;;0.20;0.10;;;11.90;99.90;;;;;;20511683;23;20260;-68
2022/01/05 04:18:52;;;;;;;0.20;0.10;;;12.00;99.90;;;;;;20495920;29;20748;-68
2022/01/05 04:28:57;;;;;;;0.20;0.10;;;11.90;99.90;;;;;;20495262;29;20209;-68
2022/01/05 04:39:01;;;;;;;0.20;0.00;;;11.80;99.90;;;;;;20491848;29;20260;-68
2022/01/05 04:49:06;;;;;;;0.20;0.20;;;11.60;99.90;;;;;;20492876;29;20523;-69
2022/01/05 04:59:13;;;;;;;0.20;0.10;;;11.40;99.90;;;;;;20507653;28;20574;-71
2022/01/05 05:09:24;;;;;;;0.20;0.10;;;11.20;99.90;;;;;;20428317;29;20534;-69
2022/01/05 05:19:28;;;;;;;0.20;0.10;;;11.00;99.90;;;;;;20427813;29;20328;-68
2022/01/05 05:29:34;;;;;;;0.20;0.00;;;10.80;99.90;;;;;;20427283;29;20225;-70
2022/01/05 05:39:38;;;;;;;0.20;0.10;;;10.60;99.90;;;;;;20360710;29;20321;-70
2022/01/05 05:49:44;;;;;;;0.20;0.10;;;10.60;99.90;;;;;;20423848;29;20289;-70
2022/01/05 05:59:48;;;;;;;6.37;6.07;;;10.60;99.90;;;;;;20428981;29;20236;-71
2022/01/05 06:09:53;;;;;;;0.20;0.00;;;10.50;99.90;;;;;;20503243;28;20209;-70
2022/01/05 06:19:57;;;;;;;0.20;0.00;;;10.40;99.90;;;;;;20503673;29;20321;-71
2022/01/05 06:30:06;;;;;;;0.20;0.10;;;10.60;99.90;;;;;;20502674;29;20224;-68
2022/01/05 06:40:10;;;;;;;0.20;0.00;;;10.80;99.90;;;;;;20501237;29;20600;-69
2022/01/05 06:50:16;;;;;;;0.20;0.10;;;10.90;99.90;;;;;;20500095;29;20197;-70
2022/01/05 07:00:23;;;;;;;0.20;0.00;;;10.70;99.90;;;;;;20498946;29;20239;-69
2022/01/05 07:10:28;;;;;;;0.20;0.10;;;10.40;99.90;;;;;;20499183;29;20275;-70
2022/01/05 07:20:33;;;;;;;0.20;0.00;;;10.40;99.90;;;;;;20499002;28;20267;-70
2022/01/05 07:30:39;;;;;;;0.20;0.00;;;10.40;99.90;;;;;;20497048;29;20205;-69
2022/01/05 07:40:43;;;;;;;0.20;0.00;;;10.20;99.90;;;;;;20479563;29;20224;-71
2022/01/05 07:50:48;;;;;;;0.20;0.07;;;10.10;99.90;;;;;;20499611;29;20200;-71
2022/01/05 08:00:52;;;;;;;0.20;0.00;;;10.20;99.90;;;;;;20469638;29;20241;-72
2022/01/05 08:10:57;;;;;;;0.20;0.00;;;10.10;99.90;;;;;;20411870;29;20232;-73
2022/01/05 08:21:01;;;;;;;0.20;0.20;;;10.00;99.90;;;;;;20413618;29;20595;-71
2022/01/05 08:31:06;;;;;;;0.20;0.00;;;9.80;99.90;;;;;;20413816;29;20647;-72
2022/01/05 08:41:10;;;;;;;0.20;0.00;;;9.60;99.90;;;;;;20415843;29;20320;-70
2022/01/05 08:51:15;;;;;;;0.20;0.00;;;9.50;99.90;;;;;;20413535;29;20201;-69
2022/01/05 09:01:19;;;;;;;0.20;0.00;;;9.50;99.90;;;;;;20439036;29;20315;-69
2022/01/05 09:11:24;;;;;;;0.20;0.00;;;9.60;99.90;;;;;;20470021;29;20224;-69
2022/01/05 09:21:28;;;;;;;0.20;0.07;;;9.80;99.90;;;;;;20441932;29;20581;-72
2022/01/05 09:31:34;;;;;;;0.20;0.00;;;9.50;99.90;;;;;;20411714;29;20193;-70
2022/01/05 09:52:04;;;;;;;0.20;0.10;;;9.60;99.90;;;;;;20421474;29;20198;-69
2022/01/05 10:02:08;;;;;;;0.20;0.03;;;9.70;99.90;;;;;;20455955;29;20240;-69
2022/01/05 10:12:15;;;;;;;0.20;0.10;;;9.90;99.90;;;;;;20500714;29;20287;-68
2022/01/05 10:22:32;;;;;;;0.20;0.10;;;10.40;99.90;;;;;;20500558;29;20228;-69
2022/01/05 10:32:38;;;;;;;0.20;0.10;;;10.50;99.90;;;;;;20498861;29;20291;-69
2022/01/05 10:42:43;;;;;;;0.20;0.10;;;10.80;99.90;;;;;;20468185;29;20262;-70
2022/01/05 10:53:10;;;;;;;0.20;0.10;;;11.00;99.90;;;;;;20438243;29;20201;-69
2022/01/05 11:03:26;;;;;;;0.20;0.10;;;11.60;99.90;;;;;;20446027;29;20256;-72
2022/01/05 11:13:53;;;;;;;0.20;0.10;;;11.90;99.90;;;;;;20482474;29;20513;-67
2022/01/05 11:23:57;;;;;;;0.20;0.10;;;12.20;99.90;;;;;;20483283;29;20318;-69
2022/01/05 11:34:07;;;;;;;0.20;0.10;;;12.20;99.90;;;;;;20465524;29;20690;-70
2022/01/05 11:44:17;;;;;;;0.20;0.20;;;12.70;99.90;;;;;;20390774;29;20205;-67
2022/01/05 11:54:24;;;;;;;0.20;0.10;;;14.20;99.90;;;;;;20383137;29;20233;-68
2022/01/05 12:04:28;;;;;;;0.20;0.10;;;14.40;99.90;;;;;;20453754;28;20340;-69
2022/01/05 12:14:48;;;;;;;0.20;0.10;;;13.60;99.90;;;;;;20480323;29;20696;-68
2022/01/05 12:25:13;;;;;;;0.20;0.10;;;14.80;99.90;;;;;;20480441;29;20204;-68
2022/01/05 12:35:20;;;;;;;0.20;0.20;;;15.60;99.90;;;;;;20479716;29;20316;-68
2022/01/05 12:45:51;;;;;;;0.20;0.10;;;14.60;99.90;;;;;;20473589;29;20197;-70
2022/01/05 12:55:57;;;;;;;0.20;0.10;;;16.90;99.90;;;;;;20473351;29;20726;-68
2022/01/05 13:06:14;;;;;;;0.20;0.00;;;17.80;99.90;;;;;;20440306;29;20268;-66
2022/01/05 13:16:19;;;;;;;0.20;0.10;;;18.30;99.90;;;;;;20466053;28;20239;-68
2022/01/05 13:26:22;;;;;;;0.33;0.33;;;18.10;99.90;;;;;;20492392;29;20201;-68
2022/01/05 13:36:27;;;;;;;0.20;0.10;;;18.20;99.90;;;;;;20474098;29;20991;-69
2022/01/05 13:46:31;;;;;;;0.20;0.10;;;15.80;99.90;;;;;;20475389;29;20197;-69
2022/01/05 13:56:42;;;;;;;0.20;0.03;;;16.00;99.90;;;;;;20489686;29;20248;-69
2022/01/05 14:06:46;;;;;;;0.20;0.10;;;17.80;99.90;;;;;;20489331;29;20231;-69
2022/01/05 14:16:51;;;;;;;0.20;0.03;;;15.70;99.90;;;;;;20489746;29;20235;-68
2022/01/05 14:26:56;;;;;;;0.20;0.00;;;14.20;99.90;;;;;;20484148;28;20227;-67
2022/01/05 14:37:09;;;;;;;0.20;0.00;;;15.80;99.90;;;;;;20438185;29;20690;-68
2022/01/05 14:47:21;;;;;;;0.20;0.00;;;17.00;99.90;;;;;;20451314;29;20292;-69
2022/01/05 14:57:26;;;;;;;0.20;0.10;;;16.10;99.90;;;;;;20388663;29;20239;-65
2022/01/05 15:07:29;;;;;;;0.20;0.10;;;15.40;99.90;;;;;;20479582;29;20238;-66
2022/01/05 15:17:35;;;;;;;0.20;0.00;;;16.30;99.90;;;;;;20481635;29;20250;-67
2022/01/05 15:27:39;;;;;;;0.20;0.10;;;16.00;99.90;;;;;;20480724;29;20566;-67
2022/01/05 15:37:44;;;;;;;0.20;0.10;;;14.20;99.90;;;;;;20479356;28;20224;-69
2022/01/05 15:47:48;;;;;;;0.20;0.10;;;13.00;99.90;;;;;;20479557;29;20959;-68
2022/01/05 15:57:58;;;;;;;0.20;0.10;;;12.60;99.90;;;;;;20478369;29;20243;-67
2022/01/05 16:08:03;;;;;;;0.20;0.10;;;12.40;99.90;;;;;;20398228;29;20239;-66
2022/01/05 16:18:09;;;;;;;0.20;0.10;;;12.20;99.90;;;;;;20382701;29;20229;-66
2022/01/05 16:28:17;;;;;;;0.20;0.10;;;11.80;99.90;;;;;;20397386;29;20204;-71
2022/01/05 16:38:22;;;;;;;0.20;0.10;;;11.40;99.90;;;;;;20396169;29;20225;-67
2022/01/05 16:48:26;;;;;;;0.33;0.33;;;11.30;99.90;;;;;;20398594;29;20211;-68
2022/01/05 17:08:53;;;;;;;1.53;1.50;;;10.50;99.90;;;;;;20488793;29;21081;-69
2022/01/05 17:18:58;;;;;;;0.20;0.10;;;10.30;99.90;;;;;;20475144;29;20237;-68
2022/01/05 17:29:02;;;;;;;0.20;0.10;;;10.10;99.90;;;;;;20489912;29;20197;-67
2022/01/05 17:39:08;;;;;;;0.20;0.10;;;9.70;99.90;;;;;;20498709;29;20232;-67
2022/01/05 17:49:11;;;;;;;0.20;0.00;;;9.70;99.90;;;;;;20500524;29;20600;-68
2022/01/05 17:59:17;;;;;;;0.20;0.10;;;9.90;99.90;;;;;;20498657;28;20311;-68
2022/01/05 18:09:22;;;;;;;0.20;0.10;;;10.00;99.90;;;;;;20498993;29;20578;-67
2022/01/05 18:19:27;;;;;;;0.20;0.10;;;10.10;99.90;;;;;;20490581;29;20642;-68
2022/01/05 18:29:32;;;;;;;0.20;0.10;;;10.20;99.90;;;;;;20479624;29;20292;-66
2022/01/05 18:39:38;;;;;;;0.20;0.10;;;10.10;99.90;;;;;;20493093;29;20287;-67
2022/01/05 18:50:00;;;;;;;0.20;0.00;;;9.80;99.90;;;;;;20495226;29;20193;-67
2022/01/05 19:00:08;;;;;;;0.20;0.10;;;9.50;99.90;;;;;;20494171;29;20232;-68
2022/01/05 19:10:12;;;;;;;0.20;0.00;;;9.10;99.90;;;;;;20459226;29;20198;-67
2022/01/05 19:20:17;;;;;;;2.67;2.47;;;8.90;99.90;;;;;;20413555;29;20646;-67
2022/01/05 19:30:21;;;;;;;0.20;0.00;;;8.90;99.90;;;;;;20398513;29;20211;-68
2022/01/05 19:40:26;;;;;;;0.20;0.10;;;8.80;99.90;;;;;;20435624;29;20229;-69
2022/01/05 19:50:33;;;;;;;3.47;3.13;;;8.50;99.90;;;;;;20411385;29;20210;-68
2022/01/05 20:00:40;;;;;;;0.20;0.10;;;8.40;99.90;;;;;;20414202;29;20295;-69
2022/01/05 20:10:44;;;;;;;0.20;0.10;;;8.40;99.90;;;;;;20395678;29;20205;-67
2022/01/05 20:20:49;;;;;;;0.20;0.07;;;8.50;99.90;;;;;;20422478;29;20229;-68
2022/01/05 20:30:53;;;;;;;0.20;0.00;;;8.60;99.90;;;;;;20408180;29;20286;-67
2022/01/05 20:41:00;;;;;;;0.30;0.30;;;8.60;99.90;;;;;;20418695;29;20689;-67
2022/01/05 20:51:04;;;;;;;0.20;0.00;;;8.50;99.90;;;;;;20408048;29;20281;-67
2022/01/05 21:01:11;;;;;;;0.20;0.10;;;8.40;99.90;;;;;;20415741;29;20442;-67
2022/01/05 21:11:16;;;;;;;0.20;0.10;;;8.30;99.90;;;;;;20408540;29;20209;-68
2022/01/05 21:21:23;;;;;;;0.20;0.10;;;8.00;99.90;;;;;;20390829;29;20308;-69
2022/01/05 21:31:27;;;;;;;0.20;0.10;;;8.10;99.90;;;;;;20410965;29;20201;-67
2022/01/05 21:41:32;;;;;;;0.20;0.10;;;8.00;99.90;;;;;;20432621;28;20229;-67
2022/01/05 21:51:36;;;;;;;0.20;0.00;;;8.00;99.90;;;;;;20420857;29;20285;-67
2022/01/05 22:01:41;;;;;;;0.20;0.00;;;8.10;99.90;;;;;;20414212;29;20823;-67
2022/01/05 22:11:45;;;;;;;0.20;0.00;;;7.90;99.90;;;;;;20420352;29;20212;-69
2022/01/05 22:21:53;;;;;;;0.20;0.10;;;7.90;99.90;;;;;;20486898;29;20232;-68
2022/01/05 22:32:02;;;;;;;0.20;0.00;;;7.80;99.90;;;;;;20498583;29;20673;-69
2022/01/05 22:42:08;;;;;;;0.20;0.00;;;8.00;99.90;;;;;;20500991;29;20252;-69
2022/01/05 22:52:12;;;;;;;0.20;0.10;;;7.60;99.90;;;;;;20499316;28;20247;-69
2022/01/05 23:02:37;;;;;;;0.20;0.00;;;7.50;99.90;;;;;;20480173;29;20248;-70
2022/01/05 23:12:41;;;;;;;0.20;0.10;;;7.40;99.90;;;;;;20495421;29;20197;-69
2022/01/05 23:22:49;;;;;;;0.20;0.10;;;7.40;99.90;;;;;;20441777;29;20240;-68
2022/01/05 23:33:33;;;;;;;0.20;0.10;;;7.40;99.90;;;;;;20430077;29;20285;-70
2022/01/05 23:44:20;;;;;;;0.20;0.00;;;7.20;99.90;;;;;;20492885;29;20231;-67
2022/01/05 23:55:05;;;;;;;0.20;0.00;;;7.30;99.90;;;;;;20491931;29;20197;-68
